Time;durP1;ratioP1;P1;durP2;ratioP2;P2;SDS_P1;SDS_P2;PMS_P1;PMS_P2;Temp;Humidity;BMP_temperature;BMP_pressure;BME280_temperature;BME280_humidity;BME280_pressure;Samples;Min_cycle;Max_cycle;Signal;HPM_P1;HPM_P2
2021/09/23 00:00:25;;;;;;;;;;;;;;;21.79;61.30;100194.69;2086302;28;19921;-61
2021/09/23 00:01:29;;;;;;;;;;;;;;;21.80;61.53;100198.28;2066501;28;20329;-60
2021/09/23 00:04:02;;;;;;;;;;;;;;;21.80;61.42;100190.03;2088204;28;19916;-61
2021/09/23 00:05:02;;;;;;;;;;;;;;;21.80;61.66;100190.94;2091660;28;19909;-62
2021/09/23 00:06:03;;;;;;;;;;;;;;;21.80;61.45;100195.53;2091336;28;19991;-60
2021/09/23 00:07:04;;;;;;;;;;;;;;;21.80;61.60;100195.53;2091609;28;19909;-61
2021/09/23 00:08:04;;;;;;;;;;;;;;;21.80;61.59;100192.78;2083624;28;19975;-60
2021/09/23 00:09:05;;;;;;;;;;;;;;;21.79;61.53;100189.19;2083596;28;19920;-60
2021/09/23 00:10:06;;;;;;;;;;;;;;;21.79;61.60;100189.19;2099640;28;19915;-60
2021/09/23 00:11:07;;;;;;;;;;;;;;;21.80;61.40;100201.03;2094910;28;20441;-60
2021/09/23 00:12:08;;;;;;;;;;;;;;;21.79;61.60;100189.19;2091650;28;20141;-60
2021/09/23 00:13:09;;;;;;;;;;;;;;;21.79;61.41;100189.19;2091327;28;19912;-60
2021/09/23 00:14:10;;;;;;;;;;;;;;;21.79;61.54;100194.69;2091400;28;20397;-59
2021/09/23 00:15:11;;;;;;;;;;;;;;;21.80;61.58;100196.41;2091370;28;20322;-60
2021/09/23 00:16:11;;;;;;;;;;;;;;;21.79;61.46;100197.41;2091461;28;20483;-60
2021/09/23 00:17:11;;;;;;;;;;;;;;;21.79;61.41;100194.69;2082342;28;20275;-59
2021/09/23 00:18:13;;;;;;;;;;;;;;;21.79;61.37;100188.34;2082365;28;19909;-60
2021/09/23 00:19:14;;;;;;;;;;;;;;;21.79;61.53;100189.19;2091390;28;19908;-60
2021/09/23 00:20:15;;;;;;;;;;;;;;;21.79;61.64;100194.69;2091421;28;20375;-60
2021/09/23 00:21:15;;;;;;;;;;;;;;;21.78;61.67;100190.22;2091196;28;19915;-60
2021/09/23 00:22:15;;;;;;;;;;;;;;;21.79;61.51;100194.69;2093954;28;19915;-60
2021/09/23 00:23:17;;;;;;;;;;;;;;;21.78;61.52;100190.22;2091513;28;19909;-59
2021/09/23 00:24:17;;;;;;;;;;;;;;;21.78;61.36;100203.94;2091304;28;19912;-60
2021/09/23 00:25:18;;;;;;;;;;;;;;;21.79;61.37;100202.91;2091212;28;19921;-60
2021/09/23 00:26:18;;;;;;;;;;;;;;;21.78;61.36;100201.22;2082732;28;19913;-59
2021/09/23 00:27:19;;;;;;;;;;;;;;;21.78;61.44;100203.94;2076965;28;19917;-60
2021/09/23 00:28:19;;;;;;;;;;;;;;;21.80;61.60;100209.25;2091491;28;19931;-60
2021/09/23 00:29:19;;;;;;;;;;;;;;;21.78;61.48;100208.59;2090299;28;19908;-60
2021/09/23 00:30:20;;;;;;;;;;;;;;;21.78;61.47;100203.94;2091329;28;20359;-59
2021/09/23 00:31:20;;;;;;;;;;;;;;;21.78;61.49;100206.69;2091477;28;19909;-60
2021/09/23 00:32:21;;;;;;;;;;;;;;;21.78;61.71;100209.44;2091284;28;19939;-60
2021/09/23 00:33:21;;;;;;;;;;;;;;;21.78;61.49;100209.44;2091452;28;19916;-60
2021/09/23 00:34:21;;;;;;;;;;;;;;;21.78;61.33;100214.94;2091135;28;19908;-61
2021/09/23 00:35:22;;;;;;;;;;;;;;;21.78;61.53;100209.44;2091268;28;19915;-60
2021/09/23 00:36:22;;;;;;;;;;;;;;;21.78;61.51;100219.56;2091336;28;19909;-60
2021/09/23 00:37:22;;;;;;;;;;;;;;;21.78;61.41;100203.94;2091280;28;19916;-60
2021/09/23 00:38:23;;;;;;;;;;;;;;;21.77;61.68;100201.34;2091452;28;20447;-59
2021/09/23 00:39:24;;;;;;;;;;;;;;;21.78;61.62;100206.69;2089241;28;19909;-59
2021/09/23 00:40:24;;;;;;;;;;;;;;;21.77;61.52;100202.22;2090899;28;19931;-60
2021/09/23 00:41:24;;;;;;;;;;;;;;;21.78;61.51;100203.94;2091002;28;19908;-60
2021/09/23 00:42:25;;;;;;;;;;;;;;;21.77;61.46;100204.97;2091210;28;19915;-60
2021/09/23 00:43:25;;;;;;;;;;;;;;;21.77;61.65;100196.72;2083087;28;19917;-60
2021/09/23 00:44:25;;;;;;;;;;;;;;;21.77;61.48;100202.22;2089103;28;19932;-60
2021/09/23 00:45:26;;;;;;;;;;;;;;;21.77;61.86;100196.72;2082454;28;20399;-60
2021/09/23 00:46:26;;;;;;;;;;;;;;;21.77;61.54;100202.22;2082468;28;19987;-60
2021/09/23 00:47:27;;;;;;;;;;;;;;;21.78;61.84;100197.59;2086002;28;20399;-61
2021/09/23 00:48:27;;;;;;;;;;;;;;;21.77;61.68;100199.47;2082911;28;19916;-60
2021/09/23 00:49:27;;;;;;;;;;;;;;;21.77;61.57;100196.72;2091215;28;19912;-60
2021/09/23 00:50:28;;;;;;;;;;;;;;;21.76;61.62;100200.50;2091126;28;19913;-60
2021/09/23 00:51:29;;;;;;;;;;;;;;;21.77;61.59;100198.63;2091293;28;19920;-60
2021/09/23 00:52:31;;;;;;;;;;;;;;;21.78;61.56;100197.59;2090115;28;19915;-59
2021/09/23 00:53:31;;;;;;;;;;;;;;;21.77;61.86;100202.22;2090751;28;19940;-60
2021/09/23 00:54:31;;;;;;;;;;;;;;;21.77;61.63;100202.22;2091013;28;19916;-61
2021/09/23 00:55:32;;;;;;;;;;;;;;;21.77;61.67;100202.22;2091164;28;19995;-60
2021/09/23 00:56:32;;;;;;;;;;;;;;;21.77;61.79;100202.22;2091059;28;19923;-60
2021/09/23 00:57:33;;;;;;;;;;;;;;;21.77;61.85;100201.34;2091335;28;19908;-60
2021/09/23 00:58:33;;;;;;;;;;;;;;;21.78;61.83;100206.69;2091053;28;20022;-59
2021/09/23 00:59:34;;;;;;;;;;;;;;;21.78;61.59;100214.94;2090395;28;19915;-59
2021/09/23 01:00:34;;;;;;;;;;;;;;;21.77;61.68;100204.09;2090338;28;19963;-60
2021/09/23 01:01:35;;;;;;;;;;;;;;;21.78;61.42;100203.94;2091315;28;19909;-59
2021/09/23 01:02:35;;;;;;;;;;;;;;;21.77;61.54;100202.22;2093524;28;19948;-59
2021/09/23 01:03:36;;;;;;;;;;;;;;;21.76;61.73;100206.00;2092793;28;19912;-60
2021/09/23 01:04:42;;;;;;;;;;;;;;;21.77;61.62;100201.34;2091150;28;19915;-60
2021/09/23 01:05:43;;;;;;;;;;;;;;;21.76;61.78;100200.50;2091130;28;19913;-59
2021/09/23 01:06:44;;;;;;;;;;;;;;;21.76;61.80;100200.50;2091088;28;19908;-60
2021/09/23 01:07:46;;;;;;;;;;;;;;;21.76;61.87;100208.75;2091166;28;19908;-60
2021/09/23 01:08:56;;;;;;;;;;;;;;;21.76;61.78;100211.47;2090970;28;19913;-60
2021/09/23 01:09:57;;;;;;;;;;;;;;;21.75;61.91;100204.25;2090854;28;19909;-60
2021/09/23 01:10:57;;;;;;;;;;;;;;;21.77;62.07;100206.84;2090765;28;19919;-60
2021/09/23 01:11:57;;;;;;;;;;;;;;;21.77;61.73;100204.09;2090887;28;19947;-60
2021/09/23 01:12:57;;;;;;;;;;;;;;;21.77;62.05;100201.34;2090840;28;19919;-60
2021/09/23 01:13:58;;;;;;;;;;;;;;;21.76;61.94;100195.03;2090871;28;19961;-60
2021/09/23 01:15:00;;;;;;;;;;;;;;;21.75;62.09;100196.03;2090786;28;19912;-60
2021/09/23 01:16:00;;;;;;;;;;;;;;;21.75;61.96;100198.75;2090860;28;19909;-59
2021/09/23 01:17:03;;;;;;;;;;;;;;;21.76;61.99;100192.28;2090871;28;19916;-59
2021/09/23 01:18:03;;;;;;;;;;;;;;;21.75;62.12;100193.28;2090744;28;20010;-60
2021/09/23 01:19:04;;;;;;;;;;;;;;;21.75;62.04;100187.78;2091043;28;19916;-60
2021/09/23 01:20:05;;;;;;;;;;;;;;;21.75;61.87;100187.78;2090861;28;20430;-59
2021/09/23 01:21:06;;;;;;;;;;;;;;;21.76;62.27;100191.41;2090930;28;19909;-60
2021/09/23 01:22:07;;;;;;;;;;;;;;;21.75;62.15;100187.78;2090865;28;19908;-60
2021/09/23 01:23:07;;;;;;;;;;;;;;;21.75;62.07;100187.78;2091081;28;19916;-60
2021/09/23 01:24:07;;;;;;;;;;;;;;;21.75;62.13;100187.78;2091052;28;19913;-60
2021/09/23 01:25:08;;;;;;;;;;;;;;;21.75;61.86;100184.19;2091049;28;19994;-60
2021/09/23 01:26:10;;;;;;;;;;;;;;;21.76;62.01;100188.69;2091175;28;19922;-59
2021/09/23 01:27:11;;;;;;;;;;;;;;;21.75;62.17;100186.94;2091019;28;19916;-60
2021/09/23 01:28:11;;;;;;;;;;;;;;;21.75;61.95;100178.72;2090973;28;19909;-60
2021/09/23 01:29:11;;;;;;;;;;;;;;;21.75;62.30;100182.31;2085955;28;19913;-59
2021/09/23 01:30:12;;;;;;;;;;;;;;;21.74;61.79;100180.59;2090907;28;20426;-61
2021/09/23 01:31:13;;;;;;;;;;;;;;;21.75;62.19;100181.44;2089948;28;19909;-60
2021/09/23 01:32:13;;;;;;;;;;;;;;;21.74;62.30;100180.59;2081903;28;19915;-60
2021/09/23 01:33:13;;;;;;;;;;;;;;;21.74;61.88;100186.09;2081862;28;20396;-60
2021/09/23 01:34:14;;;;;;;;;;;;;;;21.74;62.12;100180.59;2090959;28;19909;-59
2021/09/23 01:35:14;;;;;;;;;;;;;;;21.74;62.23;100183.34;2090642;28;19955;-60
2021/09/23 01:36:14;;;;;;;;;;;;;;;21.74;62.05;100175.09;2093834;28;19909;-60
2021/09/23 01:37:21;;;;;;;;;;;;;;;21.75;62.04;100178.72;2099113;28;19909;-60
2021/09/23 01:38:24;;;;;;;;;;;;;;;21.75;62.21;100178.72;2090699;28;19912;-60
2021/09/23 01:39:25;;;;;;;;;;;;;;;21.74;62.27;100175.09;2090771;28;19962;-65
2021/09/23 01:40:25;;;;;;;;;;;;;;;21.73;62.22;100173.41;2090776;28;19909;-60
2021/09/23 01:41:26;;;;;;;;;;;;;;;21.73;61.95;100173.41;2090805;28;19955;-60
2021/09/23 01:42:26;;;;;;;;;;;;;;;21.74;62.19;100174.25;2090506;28;19916;-60
2021/09/23 01:43:26;;;;;;;;;;;;;;;21.74;62.26;100179.75;2082400;28;19913;-60
2021/09/23 01:44:27;;;;;;;;;;;;;;;21.74;62.27;100175.09;2086739;28;19909;-60
2021/09/23 01:45:27;;;;;;;;;;;;;;;21.74;62.19;100175.09;2090605;28;19915;-60
2021/09/23 01:46:27;;;;;;;;;;;;;;;21.73;62.31;100169.78;2090870;28;19919;-60
2021/09/23 01:47:28;;;;;;;;;;;;;;;21.73;62.03;100167.91;2084834;28;19959;-59
2021/09/23 01:48:28;;;;;;;;;;;;;;;21.73;62.27;100165.19;2083277;28;20378;-60
2021/09/23 01:49:29;;;;;;;;;;;;;;;21.72;62.31;100166.19;2091070;28;19908;-61
2021/09/23 01:50:29;;;;;;;;;;;;;;;21.73;62.12;100167.91;2090655;28;19959;-60
2021/09/23 01:51:30;;;;;;;;;;;;;;;21.74;62.44;100163.28;2090654;28;19915;-60
2021/09/23 01:52:30;;;;;;;;;;;;;;;21.73;62.21;100151.47;2089914;28;20303;-60
2021/09/23 01:53:30;;;;;;;;;;;;;;;21.73;62.32;100159.69;2090602;28;19943;-60
2021/09/23 01:54:30;;;;;;;;;;;;;;;21.73;62.16;100150.56;2090637;28;20322;-59
2021/09/23 01:55:31;;;;;;;;;;;;;;;21.72;62.31;100155.22;2090697;28;19931;-60
2021/09/23 01:56:32;;;;;;;;;;;;;;;21.73;62.29;100159.69;2090578;28;20298;-60
2021/09/23 01:57:32;;;;;;;;;;;;;;;21.73;62.33;100153.31;2090518;28;20376;-60
2021/09/23 01:58:32;;;;;;;;;;;;;;;21.72;62.23;100155.22;2090508;28;19914;-61
2021/09/23 01:59:32;;;;;;;;;;;;;;;21.72;62.21;100157.94;2090707;28;19912;-60
2021/09/23 02:00:33;;;;;;;;;;;;;;;21.72;62.09;100159.84;2090516;28;19925;-60
2021/09/23 02:01:34;;;;;;;;;;;;;;;21.73;62.48;100162.44;2090806;28;20372;-59
2021/09/23 02:02:34;;;;;;;;;;;;;;;21.73;62.19;100158.81;2090618;28;19915;-61
2021/09/23 02:03:35;;;;;;;;;;;;;;;21.71;62.39;100159.00;2090687;28;19958;-59
2021/09/23 02:04:35;;;;;;;;;;;;;;;21.72;62.28;100162.59;2090531;28;19915;-59
2021/09/23 02:05:37;;;;;;;;;;;;;;;21.72;62.48;100166.19;2090705;28;19991;-61
2021/09/23 02:06:37;;;;;;;;;;;;;;;21.72;62.31;100168.94;2090431;28;19932;-58
2021/09/23 02:07:37;;;;;;;;;;;;;;;21.72;62.50;100165.31;2090589;28;19962;-60
2021/09/23 02:08:38;;;;;;;;;;;;;;;21.72;62.40;100166.19;2090657;28;19948;-60
2021/09/23 02:09:38;;;;;;;;;;;;;;;21.72;62.15;100166.19;2090604;28;19912;-60
2021/09/23 02:10:39;;;;;;;;;;;;;;;21.72;62.17;100160.69;2090615;28;19916;-60
2021/09/23 02:11:39;;;;;;;;;;;;;;;21.72;62.23;100168.94;2090579;28;19908;-60
2021/09/23 02:12:39;;;;;;;;;;;;;;;21.72;62.32;100171.66;2085913;28;19908;-60
2021/09/23 02:13:40;;;;;;;;;;;;;;;21.72;62.25;100170.81;2090702;28;19952;-59
2021/09/23 02:14:40;;;;;;;;;;;;;;;21.72;62.37;100177.16;2090442;28;19924;-60
2021/09/23 02:15:40;;;;;;;;;;;;;;;21.71;62.38;100167.22;2090511;28;20352;-60
2021/09/23 02:16:41;;;;;;;;;;;;;;;21.72;62.24;100166.19;2088999;28;19931;-60
2021/09/23 02:17:42;;;;;;;;;;;;;;;21.72;62.23;100165.31;2082449;28;20292;-60
2021/09/23 02:18:43;;;;;;;;;;;;;;;21.72;62.14;100166.19;2087462;28;19934;-60
2021/09/23 02:19:43;;;;;;;;;;;;;;;21.72;62.24;100165.31;2090626;28;19931;-60
2021/09/23 02:20:43;;;;;;;;;;;;;;;21.72;62.24;100170.81;2090629;28;19955;-60
2021/09/23 02:21:44;;;;;;;;;;;;;;;21.71;62.22;100167.22;2090545;28;20000;-60
2021/09/23 02:22:45;;;;;;;;;;;;;;;21.72;62.29;100166.19;2090570;28;19985;-59
2021/09/23 02:23:45;;;;;;;;;;;;;;;21.71;62.00;100164.47;2090529;28;19908;-60
2021/09/23 02:24:45;;;;;;;;;;;;;;;21.72;62.18;100166.19;2090641;28;20003;-60
2021/09/23 02:25:46;;;;;;;;;;;;;;;21.71;62.24;100167.22;2081655;28;19909;-60
2021/09/23 02:26:46;;;;;;;;;;;;;;;21.71;62.26;100164.47;2081553;28;19944;-59
2021/09/23 02:27:46;;;;;;;;;;;;;;;21.71;61.92;100167.22;2090524;28;19909;-60
2021/09/23 02:28:47;;;;;;;;;;;;;;;21.71;62.08;100163.63;2090540;28;19913;-60
2021/09/23 02:29:47;;;;;;;;;;;;;;;21.72;62.25;100160.69;2090354;28;19915;-60
2021/09/23 02:30:47;;;;;;;;;;;;;;;21.71;62.15;100160.88;2090554;28;19976;-60
2021/09/23 02:31:48;;;;;;;;;;;;;;;21.71;62.25;100152.66;2090184;28;20351;-60
2021/09/23 02:32:48;;;;;;;;;;;;;;;21.71;62.17;100152.66;2090487;28;19923;-60
2021/09/23 02:33:48;;;;;;;;;;;;;;;21.71;62.18;100159.00;2090549;28;20249;-60
2021/09/23 02:34:49;;;;;;;;;;;;;;;21.71;62.38;100164.47;2090520;28;20354;-60
2021/09/23 02:35:49;;;;;;;;;;;;;;;21.71;62.22;100158.13;2090519;28;19909;-59
2021/09/23 02:36:49;;;;;;;;;;;;;;;21.70;62.35;100157.25;2081361;28;19909;-60
2021/09/23 02:37:50;;;;;;;;;;;;;;;21.70;62.21;100154.50;2081543;28;19913;-60
2021/09/23 02:38:50;;;;;;;;;;;;;;;21.71;62.29;100164.47;2081415;28;19916;-59
2021/09/23 02:39:51;;;;;;;;;;;;;;;21.70;61.99;100157.25;2081443;28;20288;-60
2021/09/23 02:40:51;;;;;;;;;;;;;;;21.70;62.21;100156.41;2090572;28;19915;-60
2021/09/23 02:41:52;;;;;;;;;;;;;;;21.70;61.94;100161.88;2098398;28;20330;-59
2021/09/23 02:42:52;;;;;;;;;;;;;;;21.71;62.17;100163.63;2082911;28;19909;-59
2021/09/23 02:43:52;;;;;;;;;;;;;;;21.70;62.35;100156.41;2081491;28;19916;-60
2021/09/23 02:44:52;;;;;;;;;;;;;;;21.70;62.34;100154.50;2090341;28;19995;-60
2021/09/23 02:45:53;;;;;;;;;;;;;;;21.69;62.32;100152.81;2090347;28;20451;-60
2021/09/23 02:46:53;;;;;;;;;;;;;;;21.71;62.34;100163.63;2090432;28;19909;-60
2021/09/23 02:47:53;;;;;;;;;;;;;;;21.71;62.34;100145.28;2090417;28;20006;-60
2021/09/23 02:48:55;;;;;;;;;;;;;;;21.69;62.26;100155.53;2090352;28;19959;-60
2021/09/23 02:50:04;;;;;;;;;;;;;;;21.69;62.34;100150.06;2090396;28;19909;-59
2021/09/23 02:51:06;;;;;;;;;;;;;;;21.70;62.21;100149.03;2090348;28;19959;-60
2021/09/23 02:53:45;;;;;;;;;;;;;;;21.70;62.46;100146.28;2082276;28;19913;-59
2021/09/23 02:54:45;;;;;;;;;;;;;;;21.69;62.42;100144.56;2082066;28;19951;-60
2021/09/23 02:55:46;;;;;;;;;;;;;;;21.69;62.40;100144.56;2082302;28;19957;-60
2021/09/23 02:56:46;;;;;;;;;;;;;;;21.69;62.28;100144.56;2082221;28;19913;-60
2021/09/23 02:57:46;;;;;;;;;;;;;;;21.70;62.19;100140.78;2090297;28;19958;-60
2021/09/23 02:58:47;;;;;;;;;;;;;;;21.69;62.19;100141.81;2090281;28;19908;-60
2021/09/23 03:00:18;;;;;;;;;;;;;;;21.68;62.42;100148.34;2090438;28;19909;-59
2021/09/23 03:01:19;;;;;;;;;;;;;;;21.69;62.17;100150.06;2081485;28;19921;-60
2021/09/23 03:02:19;;;;;;;;;;;;;;;21.68;62.15;100151.09;2081429;28;19955;-59
2021/09/23 03:03:19;;;;;;;;;;;;;;;21.68;62.18;100151.09;2082340;28;19915;-59
2021/09/23 03:04:47;;;;;;;;;;;;;;;21.68;62.36;100153.84;2083845;28;19916;-59
2021/09/23 03:05:48;;;;;;;;;;;;;;;21.69;62.43;100152.81;2080546;28;19913;-60
2021/09/23 03:06:48;;;;;;;;;;;;;;;21.69;62.16;100157.44;2075707;28;19913;-60
2021/09/23 03:07:48;;;;;;;;;;;;;;;21.69;62.26;100150.06;2075775;28;20335;-59
2021/09/23 03:08:48;;;;;;;;;;;;;;;21.68;62.23;100148.34;2076189;28;19913;-60
2021/09/23 03:09:49;;;;;;;;;;;;;;;21.68;62.42;100152.97;2075568;28;19932;-60
2021/09/23 03:10:49;;;;;;;;;;;;;;;21.69;62.31;100150.06;2075541;28;19945;-60
2021/09/23 03:11:49;;;;;;;;;;;;;;;21.69;62.45;100154.69;2070015;28;19932;-60
2021/09/23 03:12:50;;;;;;;;;;;;;;;21.68;62.38;100148.34;2083103;28;19952;-60
2021/09/23 03:13:50;;;;;;;;;;;;;;;21.68;62.42;100153.84;2089472;28;19913;-60
2021/09/23 03:14:50;;;;;;;;;;;;;;;21.70;62.41;100159.13;2091943;28;19954;-60
2021/09/23 03:15:51;;;;;;;;;;;;;;;21.68;62.46;100151.09;2086513;28;20462;-60
2021/09/23 03:16:56;;;;;;;;;;;;;;;21.69;62.47;100155.53;2083597;28;19916;-60
2021/09/23 03:17:57;;;;;;;;;;;;;;;21.68;62.28;100152.97;2083491;28;19926;-60
2021/09/23 03:18:57;;;;;;;;;;;;;;;21.68;62.51;100159.34;2082699;28;19913;-61
2021/09/23 03:19:58;;;;;;;;;;;;;;;21.68;62.38;100153.84;2083032;28;19917;-60
2021/09/23 03:20:58;;;;;;;;;;;;;;;21.66;62.47;100158.63;2082994;28;19917;-60
2021/09/23 03:21:58;;;;;;;;;;;;;;;21.67;62.69;100160.34;2082894;28;19916;-60
2021/09/23 03:23:00;;;;;;;;;;;;;;;21.68;62.56;100162.06;2083723;28;19941;-60
2021/09/23 03:24:00;;;;;;;;;;;;;;;21.68;62.49;100164.81;2083525;28;19916;-60
2021/09/23 03:25:01;;;;;;;;;;;;;;;21.68;62.29;100162.06;2083761;28;20388;-60
2021/09/23 03:26:03;;;;;;;;;;;;;;;21.67;62.46;100152.09;2083730;28;20363;-60
2021/09/23 03:27:04;;;;;;;;;;;;;;;21.68;62.34;100158.44;2083686;28;20372;-60
2021/09/23 03:28:04;;;;;;;;;;;;;;;21.67;62.41;100154.84;2083641;28;20269;-60
2021/09/23 03:29:05;;;;;;;;;;;;;;;21.67;62.39;100154.84;2083453;28;20323;-60
2021/09/23 03:30:06;;;;;;;;;;;;;;;21.67;62.20;100152.09;2084835;28;19908;-59
2021/09/23 03:31:06;;;;;;;;;;;;;;;21.67;62.37;100154.84;2083820;28;20003;-60
2021/09/23 03:32:07;;;;;;;;;;;;;;;21.67;62.38;100152.09;2083552;28;19909;-60
2021/09/23 03:33:08;;;;;;;;;;;;;;;21.68;62.35;100148.34;2083209;28;19909;-60
2021/09/23 03:34:09;;;;;;;;;;;;;;;21.67;62.49;100145.75;2083503;28;19919;-60
2021/09/23 03:35:09;;;;;;;;;;;;;;;21.67;62.28;100149.34;2083550;28;19909;-60
2021/09/23 03:36:09;;;;;;;;;;;;;;;21.66;62.34;100150.41;2083560;28;19944;-60
2021/09/23 03:37:10;;;;;;;;;;;;;;;21.67;62.20;100156.75;2082673;28;19908;-61
2021/09/23 03:38:10;;;;;;;;;;;;;;;21.67;62.12;100149.34;2082851;28;19956;-59
2021/09/23 03:39:13;;;;;;;;;;;;;;;21.68;62.43;100159.34;2091443;28;19909;-59
2021/09/23 03:40:13;;;;;;;;;;;;;;;21.67;62.22;100163.06;2086192;28;19916;-59
2021/09/23 03:41:13;;;;;;;;;;;;;;;21.66;62.43;100155.88;2083559;28;19940;-60
2021/09/23 03:42:14;;;;;;;;;;;;;;;21.66;62.44;100158.63;2083476;28;20034;-60
2021/09/23 03:43:18;;;;;;;;;;;;;;;21.66;62.36;100155.88;2082928;28;19909;-59
2021/09/23 03:44:18;;;;;;;;;;;;;;;21.66;62.33;100166.84;2077894;28;20439;-59
2021/09/23 03:45:18;;;;;;;;;;;;;;;21.66;62.35;100166.84;2066846;28;20367;-59
2021/09/23 03:46:19;;;;;;;;;;;;;;;21.65;62.45;100167.88;2074515;28;19915;-59
2021/09/23 03:47:19;;;;;;;;;;;;;;;21.66;62.29;100169.59;2082779;28;19909;-59
2021/09/23 03:48:20;;;;;;;;;;;;;;;21.67;62.27;100173.19;2083461;28;19916;-60
2021/09/23 03:49:20;;;;;;;;;;;;;;;21.67;62.07;100168.56;2083218;28;20035;-59
2021/09/23 03:50:21;;;;;;;;;;;;;;;21.67;62.06;100170.44;2074954;28;19909;-60
2021/09/23 03:51:21;;;;;;;;;;;;;;;21.66;62.22;100161.38;2083147;28;19917;-59
2021/09/23 03:52:21;;;;;;;;;;;;;;;21.66;62.49;100164.13;2083407;28;19909;-60
2021/09/23 03:53:22;;;;;;;;;;;;;;;21.66;62.13;100168.75;2083329;28;19908;-60
2021/09/23 03:54:22;;;;;;;;;;;;;;;21.66;62.21;100163.25;2083176;28;19908;-59
2021/09/23 03:55:22;;;;;;;;;;;;;;;21.66;62.16;100157.78;2083368;28;19979;-59
2021/09/23 03:56:22;;;;;;;;;;;;;;;21.65;62.13;100159.63;2083327;28;19925;-59
2021/09/23 03:57:23;;;;;;;;;;;;;;;21.65;62.22;100159.63;2083410;28;19909;-60
2021/09/23 03:58:23;;;;;;;;;;;;;;;21.65;62.18;100169.75;2083431;28;19909;-60
2021/09/23 03:59:23;;;;;;;;;;;;;;;21.64;62.30;100157.94;2083385;28;19909;-60
2021/09/23 04:02:08;;;;;;;;;;;;;;;21.64;62.33;100168.91;2075046;28;20352;-61
2021/09/23 04:03:09;;;;;;;;;;;;;;;21.66;62.43;100172.34;2075269;28;20316;-60
2021/09/23 04:04:10;;;;;;;;;;;;;;;21.65;62.37;100165.13;2075278;28;19916;-60
2021/09/23 04:05:10;;;;;;;;;;;;;;;21.65;62.32;100165.13;2075014;28;19915;-60
2021/09/23 04:06:10;;;;;;;;;;;;;;;21.65;62.49;100165.13;2075175;28;19909;-59
2021/09/23 04:07:11;;;;;;;;;;;;;;;21.65;62.33;100162.38;2074983;28;19909;-60
2021/09/23 04:08:11;;;;;;;;;;;;;;;21.65;62.23;100154.16;2075091;28;19950;-60
2021/09/23 04:09:12;;;;;;;;;;;;;;;21.65;62.32;100165.13;2074944;28;19968;-59
2021/09/23 04:10:13;;;;;;;;;;;;;;;21.65;62.46;100150.56;2075157;28;19910;-60
2021/09/23 04:11:13;;;;;;;;;;;;;;;21.65;62.46;100156.03;2075327;28;19916;-60
2021/09/23 04:12:14;;;;;;;;;;;;;;;21.65;62.27;100148.66;2070146;28;19959;-60
2021/09/23 04:13:15;;;;;;;;;;;;;;;21.64;62.45;100148.84;2067165;28;19913;-60
2021/09/23 04:14:15;;;;;;;;;;;;;;;21.64;62.12;100141.47;2075290;28;19909;-60
2021/09/23 04:15:15;;;;;;;;;;;;;;;21.64;62.22;100140.63;2073982;28;20315;-59
2021/09/23 04:16:16;;;;;;;;;;;;;;;21.63;62.31;100139.72;2075017;28;20271;-60
2021/09/23 04:17:18;;;;;;;;;;;;;;;21.62;62.29;100138.88;2075096;28;19963;-60
2021/09/23 04:18:19;;;;;;;;;;;;;;;21.64;62.38;100137.88;2075300;28;19913;-60
2021/09/23 04:19:19;;;;;;;;;;;;;;;21.63;62.24;100139.72;2075043;28;19910;-61
2021/09/23 04:20:47;;;;;;;;;;;;;;;21.63;62.15;100139.72;2075053;28;19909;-60
2021/09/23 04:21:47;;;;;;;;;;;;;;;21.63;62.08;100137.00;2071151;28;19909;-60
2021/09/23 04:22:48;;;;;;;;;;;;;;;21.63;62.37;100139.72;2075084;28;19940;-60
2021/09/23 04:23:48;;;;;;;;;;;;;;;21.63;62.25;100142.47;2074944;28;20383;-60
2021/09/23 04:24:49;;;;;;;;;;;;;;;21.63;62.48;100128.75;2074975;28;19916;-60
2021/09/23 04:25:49;;;;;;;;;;;;;;;21.62;62.26;100127.91;2075011;28;19948;-60
2021/09/23 04:26:50;;;;;;;;;;;;;;;21.63;62.51;100131.50;2074307;28;19909;-60
2021/09/23 04:27:51;;;;;;;;;;;;;;;21.63;62.40;100134.25;2074332;28;19948;-60
2021/09/23 04:28:52;;;;;;;;;;;;;;;21.62;62.21;100133.41;2074050;28;19913;-60
2021/09/23 04:29:52;;;;;;;;;;;;;;;21.63;62.24;100139.72;2071007;28;20298;-60
2021/09/23 04:30:52;;;;;;;;;;;;;;;21.62;62.22;100135.28;2066870;28;19917;-60
2021/09/23 04:31:52;;;;;;;;;;;;;;;21.62;62.21;100133.41;2074089;28;19916;-60
2021/09/23 04:32:53;;;;;;;;;;;;;;;21.62;62.16;100143.50;2074709;28;19916;-59
2021/09/23 04:33:53;;;;;;;;;;;;;;;21.63;62.22;100134.25;2075000;28;19952;-60
2021/09/23 04:34:53;;;;;;;;;;;;;;;21.62;62.15;100138.03;2074991;28;20280;-60
2021/09/23 04:35:54;;;;;;;;;;;;;;;21.62;62.31;100138.88;2075071;28;19949;-60
2021/09/23 04:36:54;;;;;;;;;;;;;;;21.62;62.54;100138.88;2074954;28;19913;-60
2021/09/23 04:37:55;;;;;;;;;;;;;;;21.62;62.44;100133.41;2074894;28;19910;-60
2021/09/23 04:38:55;;;;;;;;;;;;;;;21.62;62.43;100135.28;2075124;28;19909;-60
2021/09/23 04:39:56;;;;;;;;;;;;;;;21.62;62.23;100132.53;2070035;28;19910;-61
2021/09/23 04:40:56;;;;;;;;;;;;;;;21.62;62.35;100132.53;2066872;28;19916;-60
2021/09/23 04:41:56;;;;;;;;;;;;;;;21.62;62.22;100132.53;2066810;28;20435;-59
2021/09/23 04:42:57;;;;;;;;;;;;;;;21.61;62.35;100137.19;2070085;28;20393;-60
2021/09/23 04:43:57;;;;;;;;;;;;;;;21.61;62.41;100133.59;2068133;28;19964;-60
2021/09/23 04:44:57;;;;;;;;;;;;;;;21.62;62.40;100138.03;2074250;28;19910;-61
2021/09/23 04:45:58;;;;;;;;;;;;;;;21.60;62.45;100134.59;2077388;28;19913;-60
2021/09/23 04:47:02;;;;;;;;;;;;;;;21.61;62.23;100141.81;2075788;28;19913;-60
2021/09/23 04:48:03;;;;;;;;;;;;;;;21.61;62.26;100139.06;2078077;28;19909;-60
2021/09/23 04:49:03;;;;;;;;;;;;;;;21.62;62.27;100138.03;2074664;28;19939;-60
2021/09/23 04:50:04;;;;;;;;;;;;;;;21.61;62.52;100136.31;2074858;28;20268;-60
2021/09/23 04:51:04;;;;;;;;;;;;;;;21.61;62.27;100134.44;2074579;28;19909;-60
2021/09/23 04:52:05;;;;;;;;;;;;;;;21.60;62.38;100132.69;2074749;28;19917;-60
2021/09/23 04:53:05;;;;;;;;;;;;;;;21.61;62.26;100136.31;2074542;28;19952;-60
2021/09/23 04:54:07;;;;;;;;;;;;;;;21.60;62.52;100129.94;2071733;28;19917;-60
2021/09/23 04:55:07;;;;;;;;;;;;;;;21.61;62.49;100130.84;2066565;28;20012;-60
2021/09/23 04:56:07;;;;;;;;;;;;;;;21.61;62.26;100130.84;2066913;28;20051;-60
2021/09/23 04:57:08;;;;;;;;;;;;;;;21.59;62.45;100128.25;2074399;28;19917;-60
2021/09/23 04:58:08;;;;;;;;;;;;;;;21.60;62.45;100134.59;2074813;28;20372;-60
2021/09/23 04:59:08;;;;;;;;;;;;;;;21.59;62.49;100128.25;2074562;28;20280;-60
2021/09/23 05:00:09;;;;;;;;;;;;;;;21.61;62.42;100133.59;2074362;28;19941;-60
2021/09/23 05:01:10;;;;;;;;;;;;;;;21.60;62.46;100129.09;2079924;28;19931;-60
2021/09/23 05:02:10;;;;;;;;;;;;;;;21.61;62.44;100139.06;2091741;28;20030;-60
2021/09/23 05:03:13;;;;;;;;;;;;;;;21.60;62.38;100140.06;2091097;28;19915;-60
2021/09/23 05:04:14;;;;;;;;;;;;;;;21.59;62.28;100139.22;2090883;28;19975;-60
2021/09/23 05:05:14;;;;;;;;;;;;;;;21.61;62.35;100152.78;2091762;28;19917;-60
2021/09/23 05:06:14;;;;;;;;;;;;;;;21.60;62.41;100140.06;2091140;28;19915;-60
2021/09/23 05:07:14;;;;;;;;;;;;;;;21.60;62.27;100151.91;2089265;28;19909;-60
2021/09/23 05:08:15;;;;;;;;;;;;;;;21.60;62.35;100146.41;2090902;28;19915;-60
2021/09/23 05:09:15;;;;;;;;;;;;;;;21.61;62.42;100144.56;2091006;28;20004;-59
2021/09/23 05:10:15;;;;;;;;;;;;;;;21.60;62.06;100145.56;2090888;28;19912;-59
2021/09/23 05:11:16;;;;;;;;;;;;;;;21.60;62.26;100140.06;2091151;28;19908;-59
2021/09/23 05:12:16;;;;;;;;;;;;;;;21.60;62.37;100140.06;2090961;28;19945;-60
2021/09/23 05:13:17;;;;;;;;;;;;;;;21.59;62.35;100141.13;2090984;28;19912;-59
2021/09/23 05:14:17;;;;;;;;;;;;;;;21.59;62.32;100139.22;2091156;28;19909;-60
2021/09/23 05:15:18;;;;;;;;;;;;;;;21.59;62.54;100133.72;2091036;28;19939;-59
2021/09/23 05:16:18;;;;;;;;;;;;;;;21.59;62.41;100144.72;2090895;28;20409;-60
2021/09/23 05:17:19;;;;;;;;;;;;;;;21.59;62.13;100141.97;2091181;28;19913;-60